Time;durP1;ratioP1;P1;durP2;ratioP2;P2;SDS_P1;SDS_P2;PMS_P1;PMS_P2;Temp;Humidity;BMP_temperature;BMP_pressure;BME280_temperature;BME280_humidity;BME280_pressure;Samples;Min_cycle;Max_cycle;Signal;HPM_P1;HPM_P2
2022/08/08 00:00:09;;;;;;;3.87;3.50;;;;;;;-143.84;49.98;44961.47;5152861;27;20476;-73
2022/08/08 00:02:45;;;;;;;6.50;3.33;;;;;;;-143.84;49.71;44957.66;5152443;27;20532;-73
2022/08/08 00:05:21;;;;;;;7.70;2.90;;;;;;;-143.84;49.36;45014.78;5151378;27;20523;-73
2022/08/08 00:07:55;;;;;;;6.63;3.17;;;;;;;-143.84;49.07;44995.75;5152332;27;20445;-73
2022/08/08 00:10:26;;;;;;;4.50;3.07;;;;;;;-143.84;49.17;44965.28;5152884;27;20505;-73
2022/08/08 00:13:03;;;;;;;4.13;2.77;;;;;;;-143.84;49.12;44984.31;5133818;27;20502;-73
2022/08/08 00:15:36;;;;;;;7.03;4.10;;;;;;;-143.84;49.22;44971.00;5152552;27;20432;-74
2022/08/08 00:18:09;;;;;;;4.20;3.80;;;;;;;-143.84;49.81;44965.28;5152351;27;20442;-74
2022/08/08 00:20:47;;;;;;;6.60;5.40;;;;;;;-143.84;49.99;44988.13;5152164;27;20486;-74
2022/08/08 00:23:20;;;;;;;6.47;4.83;;;;;;;-143.84;50.56;45012.88;5151998;27;20493;-73
2022/08/08 00:25:52;;;;;;;8.23;5.10;;;;;;;-143.84;51.15;44972.91;5151915;27;20954;-74
2022/08/08 00:28:27;;;;;;;9.00;5.30;;;;;;;-143.84;52.01;44957.66;5152022;27;20445;-74
2022/08/08 00:30:57;;;;;;;8.90;5.80;;;;;;;-143.84;52.14;44988.13;5151892;27;20432;-74
2022/08/08 00:33:28;;;;;;;15.37;6.33;;;;;;;-143.84;52.30;44991.94;5152316;27;20430;-74
2022/08/08 00:36:03;;;;;;;11.53;6.00;;;;;;;-143.84;52.87;44965.28;5151917;27;20441;-74
2022/08/08 00:38:42;;;;;;;14.03;6.90;;;;;;;-143.84;53.72;44963.38;5151937;27;20553;-74
2022/08/08 00:41:41;;;;;;;11.53;6.93;;;;;;;-143.84;54.03;44972.91;5151847;27;20494;-74
2022/08/08 00:44:32;;;;;;;11.43;6.70;;;;;;;-143.84;55.25;44978.63;5152049;27;20874;-74
2022/08/08 00:47:18;;;;;;;14.73;6.97;;;;;;;-143.84;55.68;45003.38;5151762;27;20494;-74
2022/08/08 00:50:20;;;;;;;8.43;6.70;;;;;;;-143.84;56.57;44986.22;5151505;27;20448;-74
2022/08/08 00:52:53;;;;;;;18.90;7.30;;;;;;;-143.84;57.16;44990.03;5151769;27;20437;-74
2022/08/08 00:55:49;;;;;;;12.90;7.60;;;;;;;-143.84;58.02;44974.81;5151417;27;20472;-74
2022/08/08 00:58:56;;;;;;;11.17;7.73;;;;;;;-143.84;58.62;44974.81;5151321;27;20437;-74
2022/08/08 01:01:33;;;;;;;8.60;7.70;;;;;;;-143.84;58.83;44984.31;5130276;27;20497;-69
2022/08/08 01:04:38;;;;;;;19.57;7.80;;;;;;;-143.84;59.74;44965.28;5151735;27;20433;-69
2022/08/08 01:07:40;;;;;;;9.17;8.13;;;;;;;-143.84;60.53;44995.75;5151643;27;20429;-69
2022/08/08 01:10:42;;;;;;;13.53;8.77;;;;;;;-143.84;61.09;44950.06;5151756;27;20436;-69
2022/08/08 01:13:34;;;;;;;8.67;7.77;;;;;;;-143.84;61.25;44988.13;5151978;27;20468;-69
2022/08/08 01:16:32;;;;;;;13.47;8.87;;;;;;;-143.84;61.76;44988.13;5151921;27;20854;-69
2022/08/08 01:19:48;;;;;;;11.37;8.07;;;;;;;-143.84;62.37;44990.03;5150195;27;20892;-69
2022/08/08 01:22:45;;;;;;;9.10;8.20;;;;;;;-143.84;62.60;44986.22;5150011;27;20485;-69
2022/08/08 01:26:03;;;;;;;13.47;8.87;;;;;;;-143.84;62.98;44976.72;5150402;27;20941;-70
2022/08/08 01:29:07;;;;;;;12.97;8.47;;;;;;;-143.84;63.81;44982.41;5142078;27;20963;-69
2022/08/08 01:32:12;;;;;;;14.80;8.30;;;;;;;-143.84;64.11;45007.19;5109824;27;20469;-69
2022/08/08 01:35:24;;;;;;;19.60;8.33;;;;;;;-143.84;64.25;44990.03;5106266;27;20438;-69
2022/08/08 01:38:23;;;;;;;11.83;8.93;;;;;;;-143.84;64.37;44965.28;5130609;27;20509;-69
2022/08/08 01:41:00;;;;;;;11.40;8.60;;;;;;;-143.84;64.69;44980.53;5130326;27;20479;-69
2022/08/08 01:43:39;;;;;;;11.47;9.00;;;;;;;-143.84;64.89;44991.94;5130652;27;20433;-69
2022/08/08 01:46:24;;;;;;;11.70;9.00;;;;;;;-143.84;65.16;45010.97;5130571;27;20556;-69
2022/08/08 01:49:02;;;;;;;11.53;8.60;;;;;;;-143.84;65.43;45005.28;5130704;27;20456;-69
2022/08/08 01:51:55;;;;;;;9.77;8.77;;;;;;;-143.84;66.06;44991.94;5130692;27;20434;-69
2022/08/08 01:54:33;;;;;;;13.07;9.60;;;;;;;-143.84;66.47;44990.03;5129939;27;20482;-70
2022/08/08 01:57:20;;;;;;;8.90;8.07;;;;;;;-143.84;66.49;44986.22;5130301;27;20525;-69
2022/08/08 02:00:09;;;;;;;13.83;8.67;;;;;;;-143.84;66.75;45016.69;5130320;27;20462;-69
2022/08/08 02:03:01;;;;;;;10.40;8.17;;;;;;;-143.84;66.87;45001.47;5130196;28;20451;-69
2022/08/08 02:05:38;;;;;;;10.50;9.07;;;;;;;-143.84;67.07;45001.47;5130891;27;20507;-69
2022/08/08 02:08:15;;;;;;;15.70;9.00;;;;;;;-143.84;67.26;44999.56;5130231;27;20962;-70
2022/08/08 02:10:59;;;;;;;15.03;8.70;;;;;;;-143.84;67.03;44976.72;5130466;28;20445;-69
2022/08/08 02:13:36;;;;;;;11.60;8.90;;;;;;;-143.84;67.15;45003.38;5130536;28;20817;-69
2022/08/08 02:16:13;;;;;;;10.00;8.70;;;;;;;-143.84;67.19;44986.22;5130384;28;20487;-69
2022/08/08 02:18:46;;;;;;;12.33;8.20;;;;;;;-143.84;67.05;44999.56;5130054;28;20449;-69
2022/08/08 02:24:14;;;;;;;11.23;7.87;;;;;;;-143.84;67.23;45005.28;5130286;28;20503;-72
2022/08/08 02:26:50;;;;;;;9.83;8.80;;;;;;;-143.84;67.18;44999.56;5129383;28;20457;-73
2022/08/08 02:29:37;;;;;;;8.70;7.80;;;;;;;-143.84;67.41;44997.66;5129821;28;21325;-73
2022/08/08 02:32:31;;;;;;;10.80;9.70;;;;;;;-143.84;67.52;45056.69;5129878;28;20510;-73
2022/08/08 02:35:38;;;;;;;11.40;7.83;;;;;;;-143.84;67.39;45009.09;5129607;28;20444;-73
2022/08/08 02:38:34;;;;;;;12.90;8.80;;;;;;;-143.84;67.61;44995.75;5132210;27;21281;-73
2022/08/08 02:41:24;;;;;;;12.50;8.23;;;;;;;-143.84;67.16;45018.59;5130357;27;20442;-73
2022/08/08 02:44:25;;;;;;;9.10;7.93;;;;;;;-143.84;67.39;44990.03;5133475;27;20546;-73
2022/08/08 02:47:25;;;;;;;7.70;7.00;;;;;;;-143.84;67.12;45014.78;5116183;27;20442;-73
2022/08/08 02:50:14;;;;;;;10.20;7.60;;;;;;;-143.84;67.17;44984.31;5133235;27;20461;-73
2022/08/08 02:53:10;;;;;;;15.30;7.40;;;;;;;-143.84;67.16;45007.19;5133243;27;20446;-73
2022/08/08 02:56:15;;;;;;;19.83;7.93;;;;;;;-143.84;67.05;44997.66;5132371;27;20477;-73
2022/08/08 02:59:19;;;;;;;18.43;7.33;;;;;;;-143.84;67.18;45001.47;5153625;27;20444;-73
2022/08/08 03:02:20;;;;;;;12.40;7.03;;;;;;;-143.84;67.04;44991.94;5152700;27;20804;-73
2022/08/08 03:05:21;;;;;;;15.60;7.13;;;;;;;-143.84;67.07;45014.78;5153674;27;20445;-71
2022/08/08 03:08:21;;;;;;;11.13;7.00;;;;;;;-143.84;66.68;44995.75;5153971;27;20449;-73
2022/08/08 03:11:39;;;;;;;17.77;7.00;;;;;;;-143.84;66.74;45009.09;5153577;27;20442;-73
2022/08/08 03:14:37;;;;;;;10.87;7.07;;;;;;;-143.84;66.67;44995.75;5153522;27;20433;-73
2022/08/08 03:17:09;;;;;;;9.83;6.70;;;;;;;-143.84;66.87;45020.50;5152646;27;20433;-73
2022/08/08 03:20:00;;;;;;;8.97;7.57;;;;;;;-143.84;66.69;45007.19;5152706;27;20469;-73
2022/08/08 03:22:27;;;;;;;8.87;7.40;;;;;;;-143.84;66.93;44999.56;5153060;27;20514;-73
2022/08/08 03:24:56;;;;;;;10.07;7.17;;;;;;;-143.84;67.10;45003.38;5153241;27;20492;-73
2022/08/08 03:27:32;;;;;;;7.93;7.20;;;;;;;-143.84;67.46;44995.75;5152153;27;20521;-73
2022/08/08 03:30:05;;;;;;;9.07;6.90;;;;;;;-143.84;67.67;45020.50;5151508;27;20505;-73
2022/08/08 03:35:19;;;;;;;13.50;6.77;;;;;;;-143.84;68.17;45022.41;5152230;27;20408;-73
2022/08/08 03:37:47;;;;;;;7.30;6.70;;;;;;;-143.84;68.07;44988.13;5151965;27;20437;-74
2022/08/08 03:40:16;;;;;;;13.83;6.70;;;;;;;-143.84;68.52;45005.28;5151555;27;20487;-73
2022/08/08 03:42:44;;;;;;;11.57;6.67;;;;;;;-143.84;68.79;45018.59;5152651;27;20465;-73
2022/08/08 03:45:17;;;;;;;9.17;6.23;;;;;;;-143.84;68.56;44984.31;5153041;27;20433;-73
2022/08/08 03:47:45;;;;;;;7.37;6.67;;;;;;;-143.84;67.59;45012.88;5152313;27;21036;-73
2022/08/08 03:50:17;;;;;;;6.87;6.27;;;;;;;-143.84;66.23;45014.78;5152552;27;20918;-73
2022/08/08 03:52:45;;;;;;;18.30;7.17;;;;;;;-143.84;64.44;44990.03;5152527;27;21018;-73
2022/08/08 03:55:13;;;;;;;10.43;7.17;;;;;;;-143.84;63.06;44990.03;5152159;27;20487;-73
2022/08/08 03:57:46;;;;;;;6.37;5.77;;;;;;;-143.84;60.58;44974.81;5152335;27;20483;-73
2022/08/08 04:00:16;;;;;;;7.70;5.80;;;;;;;-143.84;58.82;44980.53;5152726;27;20476;-73
2022/08/08 04:02:44;;;;;;;6.90;6.30;;;;;;;-143.84;56.53;44986.22;5152446;27;20441;-73
2022/08/08 04:05:11;;;;;;;6.77;5.40;;;;;;;-143.84;55.02;44972.91;5152435;27;20449;-73
2022/08/08 04:07:39;;;;;;;8.83;6.33;;;;;;;-143.84;54.35;44984.31;5152517;27;20444;-73
2022/08/08 04:10:08;;;;;;;9.00;6.03;;;;;;;-143.84;53.21;44967.19;5152533;27;20429;-73
2022/08/08 04:12:36;;;;;;;14.50;6.67;;;;;;;-143.84;52.16;44948.16;5152360;27;20437;-73
2022/08/08 04:15:05;;;;;;;8.00;5.33;;;;;;;-143.84;51.36;44948.16;5152300;27;20490;-73
2022/08/08 04:17:33;;;;;;;10.33;5.83;;;;;;;-143.84;51.10;44946.25;5152146;27;20440;-74
2022/08/08 04:20:00;;;;;;;11.43;5.50;;;;;;;-143.84;50.31;44955.75;5151944;27;20517;-74
2022/08/08 04:22:27;;;;;;;7.80;5.00;;;;;;;-143.84;49.54;44940.53;5152080;27;20818;-73
2022/08/08 04:24:55;;;;;;;14.10;5.00;;;;;;;-143.84;49.34;44934.81;5151811;27;20436;-74
2022/08/08 04:27:23;;;;;;;5.93;5.50;;;;;;;-143.84;49.59;44959.56;5151989;27;20443;-74
2022/08/08 04:29:51;;;;;;;5.80;5.13;;;;;;;-143.84;49.00;44944.34;5152056;27;20966;-74
2022/08/08 04:32:19;;;;;;;6.93;5.30;;;;;;;-143.84;49.26;44951.97;5151979;27;20486;-74
2022/08/08 04:34:47;;;;;;;7.00;4.63;;;;;;;-143.84;48.39;44965.28;5151765;27;20861;-73
2022/08/08 04:37:14;;;;;;;14.60;5.63;;;;;;;-143.84;48.41;44957.66;5151591;27;20449;-73
2022/08/08 04:39:41;;;;;;;7.00;4.20;;;;;;;-143.84;48.48;44953.88;5151731;27;20473;-73
2022/08/08 04:42:09;;;;;;;10.43;4.83;;;;;;;-143.84;48.52;44946.25;5151712;27;20440;-74
2022/08/08 04:44:36;;;;;;;6.57;5.00;;;;;;;-143.84;48.68;44921.50;5152014;27;20445;-73
2022/08/08 04:47:03;;;;;;;10.27;5.47;;;;;;;-143.84;48.33;44946.25;5151603;27;20843;-74
2022/08/08 04:49:32;;;;;;;6.90;4.97;;;;;;;-143.84;49.10;44950.06;5151508;27;20429;-73
2022/08/08 04:51:59;;;;;;;7.37;5.20;;;;;;;-143.84;48.67;44940.53;5151309;27;20437;-73
2022/08/08 04:54:27;;;;;;;4.90;4.40;;;;;;;-143.84;48.96;44940.53;5151032;27;20504;-74
2022/08/08 04:56:55;;;;;;;13.00;4.90;;;;;;;-143.84;48.50;44934.81;5151241;27;20430;-72
2022/08/08 04:59:22;;;;;;;11.87;5.33;;;;;;;-143.84;48.64;44957.66;5150577;27;20449;-73
2022/08/08 05:01:49;;;;;;;5.47;4.40;;;;;;;-143.84;47.61;44944.34;5152186;27;20441;-72
2022/08/08 05:04:17;;;;;;;8.40;4.77;;;;;;;-143.84;47.42;44944.34;5151175;27;20965;-72
2022/08/08 05:06:46;;;;;;;16.60;4.87;;;;;;;-143.84;47.31;44919.59;5151340;27;20430;-73
2022/08/08 05:09:13;;;;;;;6.50;4.43;;;;;;;-143.84;46.73;44951.97;5151071;27;20448;-73
2022/08/08 05:11:41;;;;;;;6.60;4.40;;;;;;;-143.84;46.85;44917.69;5150973;27;20448;-74
2022/08/08 05:14:10;;;;;;;10.60;4.30;;;;;;;-143.84;45.76;44919.59;5150839;27;20789;-74
2022/08/08 05:16:37;;;;;;;7.30;4.70;;;;;;;-143.84;45.72;44921.50;5151081;27;20444;-74
2022/08/08 05:19:04;;;;;;;6.20;4.50;;;;;;;-143.84;45.35;44923.41;5151202;27;20429;-74
2022/08/08 05:21:31;;;;;;;7.07;4.23;;;;;;;-143.84;45.13;44911.97;5150947;27;20472;-74
2022/08/08 05:24:00;;;;;;;5.83;4.70;;;;;;;-143.84;44.98;44938.63;5151095;27;20477;-74
2022/08/08 05:26:27;;;;;;;4.87;4.47;;;;;;;-143.84;45.11;44931.00;5150691;27;20498;-74
2022/08/08 05:28:54;;;;;;;8.83;3.90;;;;;;;-143.84;44.55;44887.22;5150701;27;20470;-73
2022/08/08 05:31:21;;;;;;;6.70;4.07;;;;;;;-143.84;43.71;44917.69;5150478;27;20445;-74
2022/08/08 05:33:49;;;;;;;4.30;3.90;;;;;;;-143.84;43.98;44927.19;5150782;27;20507;-74
2022/08/08 05:36:16;;;;;;;4.40;4.20;;;;;;;-143.84;43.39;44904.34;5150715;27;20787;-74
2022/08/08 05:38:47;;;;;;;10.63;4.07;;;;;;;-143.84;43.11;44919.59;5150620;27;20441;-73
2022/08/08 05:41:20;;;;;;;7.07;4.10;;;;;;;-143.84;42.75;44887.22;5150626;27;20481;-74
2022/08/08 05:43:48;;;;;;;10.90;4.80;;;;;;;-143.84;42.98;44908.16;5150218;27;20426;-74
2022/08/08 05:46:16;;;;;;;4.67;4.00;;;;;;;-143.84;42.31;44896.75;5149657;27;20455;-74
2022/08/08 05:48:44;;;;;;;7.70;3.63;;;;;;;-143.84;42.25;44900.53;5149473;27;20444;-74
2022/08/08 05:51:11;;;;;;;4.37;3.97;;;;;;;-143.84;41.79;44891.03;5150620;27;20987;-74
2022/08/08 05:53:38;;;;;;;14.40;4.40;;;;;;;-143.84;41.87;44908.16;5149847;27;20493;-74
2022/08/08 05:56:08;;;;;;;6.07;4.43;;;;;;;-143.84;41.19;44885.31;5149874;27;20469;-74
2022/08/08 05:58:41;;;;;;;5.70;3.60;;;;;;;-143.84;40.97;44881.50;5150430;27;20433;-74
2022/08/08 06:01:13;;;;;;;4.80;4.23;;;;;;;-143.84;40.69;44889.13;5150380;27;20481;-74
2022/08/08 06:03:42;;;;;;;9.13;4.30;;;;;;;-143.84;40.26;44887.22;5150279;27;20444;-74
2022/08/08 06:06:09;;;;;;;5.20;3.87;;;;;;;-143.84;39.86;44910.06;5150191;27;20521;-74
2022/08/08 06:08:43;;;;;;;9.67;4.13;;;;;;;-143.84;40.34;44881.50;5150329;27;20437;-74
2022/08/08 06:11:10;;;;;;;5.33;4.00;;;;;;;-143.84;39.52;44875.78;5151410;27;20441;-74
2022/08/08 06:13:39;;;;;;;4.07;3.67;;;;;;;-143.84;39.46;44862.47;5154696;27;20437;-74
2022/08/08 06:16:06;;;;;;;4.07;3.77;;;;;;;-143.84;38.84;44879.59;5154580;27;20425;-74
2022/08/08 06:18:35;;;;;;;6.40;3.53;;;;;;;-143.84;39.08;44873.88;5154662;27;20448;-74
2022/08/08 06:21:02;;;;;;;11.17;3.30;;;;;;;-143.84;38.53;44858.66;5154276;27;20477;-74
2022/08/08 06:23:29;;;;;;;13.00;4.13;;;;;;;-143.84;37.76;44837.72;5154351;27;20444;-74
2022/08/08 06:26:02;;;;;;;7.63;3.53;;;;;;;-143.84;37.07;44854.84;5154458;27;20949;-74
2022/08/08 06:28:32;;;;;;;5.70;3.67;;;;;;;-143.84;36.79;44854.84;5154507;27;20475;-73
2022/08/08 06:31:03;;;;;;;6.20;3.03;;;;;;;-143.84;35.98;44868.19;5154225;27;20433;-74
2022/08/08 06:33:37;;;;;;;8.40;3.70;;;;;;;-143.84;36.71;44868.19;5153949;27;20441;-74
2022/08/08 06:36:06;;;;;;;10.37;3.67;;;;;;;-143.84;36.80;44873.88;5154452;27;20537;-74
2022/08/08 06:38:36;;;;;;;7.60;3.73;;;;;;;-143.84;36.99;44839.63;5135718;27;20444;-74
2022/08/08 06:41:06;;;;;;;3.77;3.47;;;;;;;-143.84;37.06;44835.81;5154016;27;20493;-74
2022/08/08 06:43:36;;;;;;;4.33;3.47;;;;;;;-143.84;36.73;44828.19;5154064;27;20429;-74
2022/08/08 06:46:06;;;;;;;8.97;4.67;;;;;;;-143.84;36.47;44818.66;5154098;27;20452;-74
2022/08/08 06:48:34;;;;;;;9.73;3.90;;;;;;;-143.84;35.99;44820.56;5153563;27;21080;-74
2022/08/08 06:51:03;;;;;;;7.80;3.60;;;;;;;-143.84;35.80;44824.38;5153755;27;20968;-73
2022/08/08 06:53:31;;;;;;;8.60;3.40;;;;;;;-143.84;35.77;44774.88;5153629;27;20523;-75
2022/08/08 06:56:00;;;;;;;8.37;3.67;;;;;;;-143.84;34.78;44799.63;5153546;27;20480;-74
2022/08/08 06:58:27;;;;;;;6.10;3.00;;;;;;;-143.84;34.05;44803.44;5153752;27;20433;-74
2022/08/08 07:00:56;;;;;;;5.07;3.27;;;;;;;-143.84;33.73;44830.09;5154048;27;20480;-73
2022/08/08 07:03:37;;;;;;;18.60;3.73;;;;;;;-143.84;32.09;44769.16;5153409;27;20448;-74
2022/08/08 07:06:09;;;;;;;6.80;2.40;;;;;;;-143.84;31.69;44780.59;5153546;27;20512;-73
2022/08/08 07:08:39;;;;;;;5.10;2.90;;;;;;;-143.84;31.95;44814.88;5153599;27;20444;-74
2022/08/08 07:11:07;;;;;;;5.70;2.67;;;;;;;-143.84;32.32;44780.59;5153342;27;20425;-74
2022/08/08 07:13:39;;;;;;;6.60;2.87;;;;;;;-143.84;32.40;44771.06;5153671;27;20503;-74
2022/08/08 07:16:16;;;;;;;5.47;2.60;;;;;;;-143.84;32.35;44765.34;5153479;27;20934;-74
2022/08/08 07:18:56;;;;;;;3.20;2.90;;;;;;;-143.84;32.33;44795.81;5153373;27;20489;-74
2022/08/08 07:21:27;;;;;;;4.73;2.40;;;;;;;-143.84;32.82;44780.59;5153162;27;20480;-74
2022/08/08 07:24:00;;;;;;;6.20;2.70;;;;;;;-143.84;32.33;44761.56;5147670;27;20947;-74
2022/08/08 07:26:33;;;;;;;5.03;3.23;;;;;;;-143.84;31.60;44761.56;5131646;27;20450;-74
2022/08/08 07:29:02;;;;;;;5.10;2.50;;;;;;;-143.84;31.27;44774.88;5139665;27;20438;-74
2022/08/08 07:31:30;;;;;;;2.60;2.20;;;;;;;-143.84;31.66;44774.88;5131615;27;20445;-74
2022/08/08 07:33:59;;;;;;;4.13;3.37;;;;;;;-143.84;31.82;44753.94;5131636;27;20446;-74
2022/08/08 07:36:27;;;;;;;5.13;2.53;;;;;;;-143.84;30.90;44778.69;5133303;27;20441;-74
2022/08/08 07:38:56;;;;;;;4.63;2.53;;;;;;;-143.84;30.37;44767.25;5131647;27;20465;-74
2022/08/08 07:41:26;;;;;;;2.73;2.53;;;;;;;-143.84;30.50;44755.84;5131319;27;20564;-74
2022/08/08 07:43:55;;;;;;;5.60;2.63;;;;;;;-143.84;31.09;44772.97;5131403;27;20457;-74
2022/08/08 07:46:22;;;;;;;5.20;2.57;;;;;;;-143.84;30.93;44736.81;5131286;27;20450;-74
2022/08/08 07:48:50;;;;;;;3.20;2.30;;;;;;;-143.84;31.28;44750.13;5146645;27;20456;-74
2022/08/08 07:51:18;;;;;;;6.30;2.80;;;;;;;-143.84;31.29;44763.47;5139697;27;20465;-74
2022/08/08 07:53:54;;;;;;;4.97;2.60;;;;;;;-143.84;31.01;44767.25;5134474;27;20454;-74
2022/08/08 07:56:21;;;;;;;2.83;2.30;;;;;;;-143.84;30.84;44782.50;5135171;27;20506;-74
2022/08/08 07:58:51;;;;;;;5.23;2.77;;;;;;;-143.84;30.38;44740.59;5130752;27;20457;-74
2022/08/08 08:01:25;;;;;;;6.80;3.03;;;;;;;-143.84;31.23;44733.00;5130834;27;20482;-74
2022/08/08 08:03:55;;;;;;;2.93;2.73;;;;;;;-143.84;31.49;44767.25;5130974;27;20450;-73
2022/08/08 08:06:27;;;;;;;5.80;3.30;;;;;;;-143.84;31.29;44755.84;5131165;27;21045;-74
2022/08/08 08:08:57;;;;;;;6.40;3.10;;;;;;;-143.84;30.67;44742.50;5136499;27;20449;-74
2022/08/08 08:11:26;;;;;;;4.53;2.80;;;;;;;-143.84;30.95;44759.66;5130950;27;20450;-73
2022/08/08 08:14:01;;;;;;;3.57;2.60;;;;;;;-143.84;30.76;44767.25;5134696;27;20977;-74
2022/08/08 08:16:30;;;;;;;5.30;2.50;;;;;;;-143.84;29.98;44769.16;5145635;27;20456;-74
2022/08/08 08:18:58;;;;;;;3.40;2.43;;;;;;;-143.84;30.66;44734.91;5131132;27;20457;-73
2022/08/08 08:21:30;;;;;;;6.43;3.37;;;;;;;-143.84;30.64;44733.00;5132039;27;20493;-74
2022/08/08 08:23:57;;;;;;;5.40;2.77;;;;;;;-143.84;31.29;44700.63;5145953;27;20445;-74
2022/08/08 08:26:25;;;;;;;2.97;2.47;;;;;;;-143.84;30.92;44721.56;5134694;27;20887;-74
2022/08/08 08:28:52;;;;;;;15.47;3.57;;;;;;;-143.84;31.24;44759.66;5134329;27;21121;-73
2022/08/08 08:31:19;;;;;;;2.83;2.53;;;;;;;;;;5130503;27;20468;-73
2022/08/08 08:33:46;;;;;;;4.47;3.13;;;;;;;-143.84;30.77;44717.75;5131021;27;20457;-74
2022/08/08 08:36:14;;;;;;;12.30;3.20;;;;;;;-143.84;31.45;44713.94;5139163;27;20448;-74
2022/08/08 08:38:42;;;;;;;3.10;2.53;;;;;;;-143.84;29.28;44736.81;5135206;27;20482;-74
2022/08/08 08:41:11;;;;;;;11.23;3.50;;;;;;;-143.84;29.50;44702.53;5130394;27;21001;-73
2022/08/08 08:43:39;;;;;;;5.60;2.73;;;;;;;-143.84;30.10;44713.94;5130092;27;20978;-73
2022/08/08 08:46:09;;;;;;;10.20;2.90;;;;;;;-143.84;29.77;44733.00;5131117;27;20445;-73
2022/08/08 08:48:36;;;;;;;9.03;3.07;;;;;;;-143.84;29.82;44725.38;5132126;27;20876;-74
2022/08/08 08:51:05;;;;;;;9.80;2.70;;;;;;;-143.84;29.66;44708.25;5130052;27;20453;-73
2022/08/08 08:53:36;;;;;;;7.37;2.80;;;;;;;-143.84;29.48;44736.81;5129849;27;20454;-74
2022/08/08 08:56:07;;;;;;;7.80;2.87;;;;;;;-143.84;29.78;44717.75;5129974;27;20562;-73
2022/08/08 08:58:38;;;;;;;14.93;3.27;;;;;;;-143.84;28.72;44706.34;5141143;27;20453;-73
2022/08/08 09:01:06;;;;;;;8.03;2.50;;;;;;;-143.84;28.88;44685.38;5146518;27;20488;-73
2022/08/08 09:03:35;;;;;;;7.50;3.13;;;;;;;-143.84;28.05;44725.38;5146068;27;20441;-73
2022/08/08 09:06:03;;;;;;;3.33;2.70;;;;;;;-143.84;29.39;44721.56;5145886;27;20441;-73
2022/08/08 09:08:35;;;;;;;5.67;2.70;;;;;;;-143.84;29.67;44723.47;5129508;27;20566;-73
2022/08/08 09:11:03;;;;;;;3.53;2.40;;;;;;;-143.84;29.06;44715.84;5129902;27;20878;-72
2022/08/08 09:13:33;;;;;;;15.03;3.30;;;;;;;-143.84;30.38;44723.47;5136039;27;20442;-78
2022/08/08 09:16:01;;;;;;;4.27;3.00;;;;;;;-143.84;29.41;44687.28;5136862;27;20536;-78
2022/08/08 09:18:30;;;;;;;7.77;2.60;;;;;;;-143.84;28.84;44733.00;5145222;27;20433;-77
2022/08/08 09:20:58;;;;;;;4.53;2.90;;;;;;;-143.84;28.44;44710.16;5139837;27;20453;-78
2022/08/08 09:23:26;;;;;;;14.47;3.47;;;;;;;-143.84;30.17;44729.19;5134418;27;20454;-77
2022/08/08 09:25:59;;;;;;;8.53;3.10;;;;;;;-143.84;30.19;44742.50;5141309;27;20495;-78
2022/08/08 09:28:29;;;;;;;9.83;2.77;;;;;;;-143.84;29.95;44706.34;5140286;27;20450;-78
2022/08/08 09:31:03;;;;;;;14.20;3.27;;;;;;;-143.84;29.03;44704.44;5140945;27;20448;-78
2022/08/08 09:33:33;;;;;;;8.40;2.90;;;;;;;-143.84;28.94;44666.34;5141796;27;20452;-78
2022/08/08 09:36:02;;;;;;;16.87;3.60;;;;;;;-143.84;29.71;44687.28;5136159;27;20775;-78
2022/08/08 09:38:44;;;;;;;6.20;3.60;;;;;;;-143.84;30.24;44713.94;5135641;27;20446;-77
2022/08/08 09:41:18;;;;;;;4.23;2.80;;;;;;;-143.84;28.99;44700.63;5133707;27;20482;-78
2022/08/08 09:43:50;;;;;;;9.00;3.30;;;;;;;-143.84;29.40;44689.19;5133704;27;20460;-78
2022/08/08 09:46:22;;;;;;;10.70;3.70;;;;;;;-143.84;29.50;44670.16;5132237;27;20434;-78
2022/08/08 09:48:49;;;;;;;5.83;3.77;;;;;;;-143.84;29.61;44706.34;5133850;27;20442;-78
2022/08/08 09:51:18;;;;;;;5.20;3.60;;;;;;;-143.84;29.53;44706.34;5130917;27;20482;-78
2022/08/08 09:53:50;;;;;;;8.70;3.40;;;;;;;-143.84;30.38;44731.09;5131400;27;20454;-78
2022/08/08 09:56:18;;;;;;;8.23;3.10;;;;;;;-143.84;30.59;44691.09;5131602;27;20482;-78
2022/08/08 09:59:00;;;;;;;5.93;3.13;;;;;;;-143.84;29.15;44723.47;5112149;28;20438;-79
2022/08/08 10:01:31;;;;;;;10.87;3.80;;;;;;;-143.84;29.59;44721.56;5114696;28;20455;-77
2022/08/08 10:03:59;;;;;;;10.80;2.70;;;;;;;-143.84;30.46;44753.94;5111782;28;20439;-77
2022/08/08 10:06:26;;;;;;;5.30;2.60;;;;;;;-143.84;29.78;44719.66;5128238;28;20476;-78
2022/08/08 10:08:54;;;;;;;4.27;2.80;;;;;;;-143.84;30.60;44723.47;5135676;28;20498;-78
2022/08/08 10:11:23;;;;;;;10.03;3.23;;;;;;;-143.84;29.75;44740.59;5134682;28;20458;-78
2022/08/08 10:13:55;;;;;;;5.23;2.70;;;;;;;-143.84;30.07;44715.84;5124906;28;20944;-78
2022/08/08 10:16:22;;;;;;;6.63;2.73;;;;;;;-143.84;29.73;44698.72;5113643;28;20497;-78
2022/08/08 10:19:02;;;;;;;12.50;2.47;;;;;;;-143.84;30.01;44763.47;5113405;28;20439;-78
2022/08/08 10:21:32;;;;;;;11.80;2.80;;;;;;;-143.84;28.21;44698.72;5112939;28;20504;-78
2022/08/08 10:24:06;;;;;;;11.47;2.67;;;;;;;-143.84;27.78;44717.75;5112787;28;20464;-78
2022/08/08 10:26:39;;;;;;;6.17;2.20;;;;;;;-143.84;27.74;44721.56;5112818;28;20441;-78
2022/08/08 10:29:08;;;;;;;5.00;2.17;;;;;;;-143.84;27.21;44689.19;5112517;28;20462;-78
2022/08/08 10:34:24;;;;;;;6.23;2.77;;;;;;;;;;5113600;28;20481;-78
2022/08/08 10:36:53;;;;;;;11.57;3.00;;;;;;;-143.84;28.30;44672.06;5113373;28;20508;-78
2022/08/08 10:39:22;;;;;;;3.93;2.13;;;;;;;-143.84;27.42;44706.34;5111635;28;20934;-78
2022/08/08 10:41:56;;;;;;;6.00;3.00;;;;;;;-143.84;27.95;44717.75;5111165;28;21084;-78
2022/08/08 10:44:32;;;;;;;3.13;2.43;;;;;;;-143.84;27.85;44683.50;5111765;28;20431;-78
2022/08/08 10:47:09;;;;;;;4.13;2.30;;;;;;;-143.84;28.39;44712.06;5111782;28;20488;-78
2022/08/08 10:49:38;;;;;;;5.40;2.23;;;;;;;-143.84;28.53;44710.16;5111413;28;20716;-77
2022/08/08 10:52:05;;;;;;;4.17;2.60;;;;;;;-143.84;28.42;44691.09;5112869;28;20450;-78
2022/08/08 10:54:33;;;;;;;6.67;2.40;;;;;;;-143.84;28.91;44700.63;5112902;28;20536;-77
2022/08/08 10:57:01;;;;;;;7.77;2.47;;;;;;;-143.84;28.90;44706.34;5112606;28;20439;-78
2022/08/08 10:59:28;;;;;;;29.30;3.00;;;;;;;-143.84;29.22;44755.84;5117463;28;20435;-78
2022/08/08 11:01:56;;;;;;;10.40;2.53;;;;;;;-143.84;29.44;44733.00;5116458;28;20473;-78
2022/08/08 11:04:23;;;;;;;8.23;2.50;;;;;;;-143.84;28.87;44717.75;5116695;28;20567;-78
2022/08/08 11:07:00;;;;;;;6.40;2.70;;;;;;;-143.84;28.40;44723.47;5116815;28;20492;-78
2022/08/08 11:09:28;;;;;;;7.10;3.00;;;;;;;-143.84;29.04;44727.28;5116729;28;20503;-77
2022/08/08 11:11:57;;;;;;;5.90;2.83;;;;;;;-143.84;29.00;44712.06;5116905;28;20499;-77
2022/08/08 11:14:24;;;;;;;4.43;2.63;;;;;;;-143.84;28.84;44755.84;5116116;28;20445;-78
2022/08/08 11:16:52;;;;;;;15.07;2.70;;;;;;;-143.84;29.73;44753.94;5116617;28;20431;-77
2022/08/08 11:19:23;;;;;;;7.30;2.67;;;;;;;-143.84;28.85;44721.56;5117529;28;20445;-78
2022/08/08 11:21:53;;;;;;;13.97;2.67;;;;;;;-143.84;28.81;44731.09;5115309;28;20475;-77
2022/08/08 11:24:22;;;;;;;9.20;3.10;;;;;;;-143.84;29.14;44736.81;5132197;27;20537;-78
2022/08/08 11:26:50;;;;;;;6.17;3.23;;;;;;;-143.84;29.13;44706.34;5136732;27;20438;-77
2022/08/08 11:29:18;;;;;;;9.67;3.03;;;;;;;-143.84;29.35;44706.34;5136192;27;20441;-77
2022/08/08 11:31:50;;;;;;;7.10;2.47;;;;;;;-143.84;29.21;44750.13;5135863;27;20460;-77
2022/08/08 11:34:19;;;;;;;4.20;2.67;;;;;;;-143.84;29.11;44742.50;5135858;27;20438;-78
2022/08/08 11:36:46;;;;;;;7.77;2.53;;;;;;;-143.84;29.41;44713.94;5136014;27;20438;-77
2022/08/08 11:39:17;;;;;;;8.20;2.53;;;;;;;-143.84;28.52;44729.19;5136882;27;20909;-77
2022/08/08 11:41:49;;;;;;;9.07;2.63;;;;;;;-143.84;28.67;44727.28;5136035;27;21041;-77
2022/08/08 11:44:18;;;;;;;16.03;2.93;;;;;;;-143.84;28.87;44712.06;5135941;27;20506;-77
2022/08/08 11:46:45;;;;;;;6.33;2.57;;;;;;;-143.84;28.45;44769.16;5136010;27;20426;-77
2022/08/08 11:49:13;;;;;;;7.33;2.73;;;;;;;-143.84;28.54;44772.97;5134912;27;20437;-77
2022/08/08 11:51:41;;;;;;;4.97;2.93;;;;;;;-143.84;29.20;44767.25;5134591;27;20846;-77
2022/08/08 11:54:09;;;;;;;2.23;2.10;;;;;;;-143.84;29.19;44757.75;5134735;27;20907;-77
2022/08/08 11:56:38;;;;;;;6.73;3.13;;;;;;;-143.84;29.54;44790.13;5133182;27;20503;-78